Time;durP1;ratioP1;P1;durP2;ratioP2;P2;SDS_P1;SDS_P2;PMS_P1;PMS_P2;Temp;Humidity;BMP_temperature;BMP_pressure;BME280_temperature;BME280_humidity;BME280_pressure;Samples;Min_cycle;Max_cycle;Signal;HPM_P1;HPM_P2
2022/01/19 00:01:10;;;;;;;11.88;10.77;;;4.50;73.80;;;;;;5052435;28;20212;-58
2022/01/19 00:03:37;;;;;;;15.95;12.15;;;4.40;73.90;;;;;;5052582;28;20208;-58
2022/01/19 00:06:04;;;;;;;13.73;11.02;;;4.30;74.30;;;;;;5052560;28;20288;-58
2022/01/19 00:08:32;;;;;;;11.38;10.05;;;4.30;74.40;;;;;;5052345;28;20251;-59
2022/01/19 00:10:59;;;;;;;16.55;11.45;;;4.30;74.40;;;;;;5052447;28;20729;-59
2022/01/19 00:13:27;;;;;;;13.70;11.90;;;4.20;74.70;;;;;;5051028;28;20557;-59
2022/01/19 00:15:54;;;;;;;14.13;11.15;;;4.20;74.70;;;;;;5052257;28;20228;-57
2022/01/19 00:18:24;;;;;;;13.90;11.80;;;4.30;74.70;;;;;;5052417;28;20205;-58
2022/01/19 00:20:52;;;;;;;15.27;12.18;;;4.30;74.50;;;;;;5052383;28;20203;-59
2022/01/19 00:23:20;;;;;;;14.73;11.90;;;4.30;74.40;;;;;;5052481;28;20570;-58
2022/01/19 00:25:50;;;;;;;14.07;11.18;;;4.30;74.40;;;;;;5052363;28;20208;-59
2022/01/19 00:28:17;;;;;;;13.57;12.02;;;4.30;74.40;;;;;;5050799;28;20208;-58
2022/01/19 00:30:44;;;;;;;20.13;12.50;;;4.20;74.70;;;;;;5053161;28;20204;-58
2022/01/19 00:33:13;;;;;;;15.82;12.27;;;4.20;74.70;;;;;;5056048;28;20255;-57
2022/01/19 00:35:40;;;;;;;14.85;11.80;;;4.20;74.80;;;;;;5056118;28;20201;-59
2022/01/19 00:38:08;;;;;;;14.77;12.32;;;4.10;75.00;;;;;;5055990;28;20206;-60
2022/01/19 00:40:36;;;;;;;13.55;11.88;;;4.10;75.20;;;;;;5055905;28;20209;-60
2022/01/19 00:43:05;;;;;;;13.90;11.90;;;4.00;75.40;;;;;;5055180;28;20201;-60
2022/01/19 00:45:31;;;;;;;12.40;11.10;;;3.80;76.10;;;;;;5055846;28;20211;-60
2022/01/19 00:47:58;;;;;;;14.25;11.55;;;3.80;76.30;;;;;;5056019;28;20209;-59
2022/01/19 00:50:28;;;;;;;14.23;11.45;;;3.90;76.30;;;;;;5055752;28;20325;-60
2022/01/19 00:52:55;;;;;;;16.00;11.30;;;3.90;76.10;;;;;;5055718;28;20664;-60
2022/01/19 00:55:24;;;;;;;13.68;11.63;;;4.00;75.90;;;;;;5055548;28;20211;-60
2022/01/19 00:57:51;;;;;;;13.20;11.52;;;4.10;75.80;;;;;;5055723;28;20202;-60
2022/01/19 01:00:22;;;;;;;14.77;11.95;;;4.10;75.70;;;;;;5054403;28;20209;-60
2022/01/19 01:02:49;;;;;;;18.58;12.38;;;4.20;75.50;;;;;;5055522;28;20599;-60
2022/01/19 01:05:16;;;;;;;13.43;11.35;;;4.20;75.50;;;;;;5055551;28;20707;-60
2022/01/19 01:07:43;;;;;;;19.27;12.95;;;4.20;75.40;;;;;;5055412;28;20295;-61
2022/01/19 01:10:13;;;;;;;16.20;11.43;;;4.20;75.30;;;;;;5055382;28;20586;-60
2022/01/19 01:12:47;;;;;;;16.95;12.20;;;4.20;75.30;;;;;;5055285;28;20294;-59
2022/01/19 01:15:37;;;;;;;16.05;12.40;;;4.00;75.50;;;;;;5054044;28;20268;-60
2022/01/19 01:18:19;;;;;;;17.08;11.93;;;3.90;76.10;;;;;;5055171;28;20205;-59
2022/01/19 01:20:48;;;;;;;16.23;11.50;;;3.50;77.40;;;;;;5055281;28;20259;-60
2022/01/19 01:23:15;;;;;;;14.73;12.32;;;3.40;78.10;;;;;;5055107;28;20209;-59
2022/01/19 01:25:42;;;;;;;16.95;12.00;;;3.50;77.90;;;;;;5055169;28;20212;-60
2022/01/19 01:28:09;;;;;;;14.70;11.98;;;3.60;77.70;;;;;;5053745;28;20675;-60
2022/01/19 01:30:36;;;;;;;15.32;12.18;;;3.70;77.50;;;;;;5054755;28;20598;-60
2022/01/19 01:33:05;;;;;;;13.27;11.45;;;3.80;77.20;;;;;;5055017;28;20201;-59
2022/01/19 01:35:32;;;;;;;18.48;13.02;;;3.70;77.10;;;;;;5054961;28;20296;-59
2022/01/19 01:37:59;;;;;;;14.40;11.70;;;3.60;77.40;;;;;;5054721;28;20210;-60
2022/01/19 01:40:26;;;;;;;14.23;11.70;;;3.40;78.30;;;;;;5054901;28;20207;-59
2022/01/19 01:42:55;;;;;;;15.07;11.95;;;3.30;78.50;;;;;;5053612;28;20240;-59
2022/01/19 01:45:27;;;;;;;13.45;11.75;;;3.30;79.00;;;;;;5053437;28;20208;-60
2022/01/19 01:48:04;;;;;;;14.13;12.55;;;3.20;79.30;;;;;;5054469;28;20262;-61
2022/01/19 01:53:28;;;;;;;21.83;12.55;;;2.90;80.20;;;;;;5054598;28;20211;-61
2022/01/19 01:55:58;;;;;;;16.33;12.35;;;2.90;80.70;;;;;;5054413;28;20201;-60
2022/01/19 01:58:25;;;;;;;15.23;12.18;;;2.90;80.70;;;;;;5053192;28;20545;-59
2022/01/19 02:00:52;;;;;;;15.05;11.07;;;2.80;80.80;;;;;;5054406;28;20303;-61
2022/01/19 02:03:19;;;;;;;19.88;11.57;;;2.70;80.80;;;;;;5054463;28;20207;-59
2022/01/19 02:08:37;;;;;;;15.40;11.80;;;2.90;80.90;;;;;;5054080;28;20201;-60
2022/01/19 02:11:28;;;;;;;16.58;11.23;;;3.10;80.20;;;;;;5054208;28;20267;-60
2022/01/19 02:16:47;;;;;;;15.10;11.48;;;3.40;78.80;;;;;;5053991;28;20200;-57
2022/01/19 02:22:01;;;;;;;15.38;11.40;;;3.50;78.20;;;;;;5054186;28;20208;-60
2022/01/19 02:24:32;;;;;;;15.00;10.60;;;3.60;77.80;;;;;;5054012;28;20212;-60
2022/01/19 02:27:07;;;;;;;14.80;11.05;;;3.60;77.60;;;;;;5053845;28;20244;-58
2022/01/19 02:40:51;;;;;;;14.70;11.35;;;3.80;76.90;;;;;;4992253;28;20231;-60
2022/01/19 02:43:23;;;;;;;16.05;11.57;;;3.80;77.00;;;;;;4990866;28;20246;-61
2022/01/19 02:51:19;;;;;;;15.07;11.30;;;3.80;76.40;;;;;;5053593;28;20212;-60
2022/01/19 02:53:47;;;;;;;14.63;11.05;;;3.80;76.50;;;;;;5053036;28;20425;-59
2022/01/19 02:56:21;;;;;;;16.55;11.38;;;3.80;76.30;;;;;;5053411;28;20284;-60
2022/01/19 02:58:53;;;;;;;13.68;11.00;;;3.80;76.30;;;;;;5052151;28;20243;-61
2022/01/19 03:09:34;;;;;;;14.38;10.68;;;3.70;75.70;;;;;;5053234;28;20236;-59
2022/01/19 03:12:01;;;;;;;12.35;10.57;;;3.40;76.30;;;;;;5053127;28;20264;-60
2022/01/19 03:14:28;;;;;;;17.20;11.00;;;3.30;77.10;;;;;;5051902;28;20221;-58
2022/01/19 03:16:54;;;;;;;12.98;9.55;;;3.30;77.00;;;;;;5053013;28;20306;-60
2022/01/19 03:19:21;;;;;;;11.23;10.13;;;3.20;77.30;;;;;;5052931;28;20233;-60
2022/01/19 03:21:48;;;;;;;12.90;9.30;;;3.30;77.10;;;;;;5052943;28;20205;-57
2022/01/19 03:24:15;;;;;;;13.40;9.52;;;3.30;76.90;;;;;;5052940;28;20211;-57
2022/01/19 03:26:43;;;;;;;16.60;10.90;;;3.10;76.70;;;;;;5052991;28;20237;-58
2022/01/19 03:29:10;;;;;;;18.58;10.23;;;2.90;77.60;;;;;;5051463;28;20206;-58
2022/01/19 03:31:37;;;;;;;13.27;10.10;;;2.90;77.90;;;;;;5052701;28;20210;-61
2022/01/19 03:34:06;;;;;;;13.23;10.50;;;3.00;77.80;;;;;;5052813;28;20648;-60
2022/01/19 03:36:33;;;;;;;17.52;10.60;;;3.00;77.60;;;;;;5052767;28;20244;-57
2022/01/19 03:39:00;;;;;;;13.05;10.68;;;3.10;77.40;;;;;;5052841;28;20213;-61
2022/01/19 03:41:27;;;;;;;12.65;9.82;;;3.20;77.20;;;;;;5052845;28;20205;-61
2022/01/19 03:43:55;;;;;;;11.60;9.50;;;3.20;77.10;;;;;;5051502;28;20284;-58
2022/01/19 03:46:32;;;;;;;14.27;10.73;;;3.30;76.90;;;;;;5052599;28;20216;-58
2022/01/19 03:49:09;;;;;;;12.50;11.20;;;3.30;76.80;;;;;;5052729;28;20204;-60
2022/01/19 03:51:36;;;;;;;18.17;10.50;;;3.30;76.40;;;;;;5052598;28;20311;-61
2022/01/19 03:54:03;;;;;;;13.95;10.73;;;3.30;76.60;;;;;;5052587;28;20651;-60
2022/01/19 03:56:29;;;;;;;14.80;11.18;;;3.20;76.30;;;;;;5052600;28;20197;-60
2022/01/19 03:58:58;;;;;;;13.52;10.32;;;3.20;76.50;;;;;;5051191;28;20206;-61
2022/01/19 04:01:25;;;;;;;14.27;10.98;;;3.20;76.60;;;;;;5052458;28;20213;-60
2022/01/19 04:06:58;;;;;;;15.98;11.10;;;3.20;76.40;;;;;;5019160;28;20193;-61
2022/01/19 04:09:26;;;;;;;13.90;10.63;;;3.20;76.20;;;;;;5056335;28;20712;-60
2022/01/19 04:11:53;;;;;;;14.25;10.68;;;2.90;76.70;;;;;;5056413;28;20288;-59
2022/01/19 04:14:25;;;;;;;12.90;10.38;;;2.70;77.60;;;;;;5055044;28;20221;-59
2022/01/19 04:16:54;;;;;;;12.80;10.75;;;2.50;78.60;;;;;;5056325;28;20197;-60
2022/01/19 04:19:27;;;;;;;14.95;11.20;;;2.50;78.70;;;;;;5056540;28;20296;-60
2022/01/19 04:21:55;;;;;;;18.17;13.15;;;2.60;78.70;;;;;;5056270;28;20229;-61
2022/01/19 04:24:23;;;;;;;18.75;12.15;;;2.60;78.30;;;;;;5056221;28;20244;-58
2022/01/19 04:29:44;;;;;;;17.25;12.52;;;2.60;78.20;;;;;;5054561;28;20194;-59
2022/01/19 04:32:15;;;;;;;16.90;12.77;;;2.40;79.10;;;;;;5055950;28;20244;-60
2022/01/19 04:34:44;;;;;;;20.13;12.00;;;2.20;79.70;;;;;;5056097;28;20232;-57
2022/01/19 04:37:29;;;;;;;21.73;13.38;;;2.30;79.30;;;;;;5055995;28;20214;-58
2022/01/19 05:02:39;;;;;;;20.75;13.25;;;1.70;80.70;;;;;;5055375;28;20204;-58
2022/01/19 05:05:12;;;;;;;23.08;13.43;;;1.60;81.70;;;;;;5055509;28;20197;-61
2022/01/19 05:07:43;;;;;;;24.70;14.57;;;1.60;81.40;;;;;;5055325;28;20204;-60
2022/01/19 05:15:39;;;;;;;17.65;13.07;;;1.80;81.30;;;;;;5055344;28;20208;-62
2022/01/19 05:18:07;;;;;;;19.17;13.43;;;1.70;81.80;;;;;;5054842;28;20587;-58
2022/01/19 05:20:34;;;;;;;19.50;13.30;;;1.50;82.40;;;;;;5055290;28;20233;-59
2022/01/19 05:23:01;;;;;;;19.75;13.05;;;1.40;82.70;;;;;;5055187;28;20208;-60
2022/01/19 05:25:28;;;;;;;20.52;12.30;;;1.40;83.00;;;;;;5055145;28;20668;-61
2022/01/19 05:27:55;;;;;;;25.85;14.48;;;1.50;82.60;;;;;;5055058;28;20206;-60
2022/01/19 05:30:23;;;;;;;24.98;14.80;;;1.60;82.20;;;;;;5053823;28;20229;-61
2022/01/19 05:32:50;;;;;;;23.52;13.45;;;1.70;81.80;;;;;;5054743;28;20212;-60
2022/01/19 05:35:18;;;;;;;21.40;13.05;;;1.70;81.50;;;;;;5055018;28;20211;-60
2022/01/19 05:37:45;;;;;;;26.42;15.00;;;1.70;81.40;;;;;;5054847;28;20201;-59
2022/01/19 05:40:14;;;;;;;20.48;14.20;;;1.70;81.90;;;;;;5054809;28;20231;-60
2022/01/19 05:42:41;;;;;;;24.85;14.27;;;1.70;81.40;;;;;;5054863;28;20208;-61
2022/01/19 05:45:09;;;;;;;23.05;13.30;;;1.70;81.20;;;;;;5053446;28;20589;-61
2022/01/19 05:47:36;;;;;;;27.23;17.77;;;1.70;81.20;;;;;;5054536;28;20201;-61
2022/01/19 05:50:04;;;;;;;22.85;13.43;;;1.60;81.40;;;;;;5054583;28;20229;-61
2022/01/19 05:52:32;;;;;;;23.25;13.32;;;1.70;81.20;;;;;;5054591;28;20678;-60
2022/01/19 05:54:59;;;;;;;23.48;13.52;;;1.70;81.10;;;;;;5054622;28;20292;-61
2022/01/19 05:57:26;;;;;;;25.38;13.73;;;1.70;81.00;;;;;;5054578;28;20212;-61
2022/01/19 05:59:53;;;;;;;19.50;12.38;;;1.60;81.00;;;;;;5053046;28;20293;-59
2022/01/19 06:02:20;;;;;;;17.52;11.18;;;1.50;81.50;;;;;;5054170;28;20236;-60
2022/01/19 06:04:47;;;;;;;22.13;13.18;;;1.50;81.30;;;;;;5054494;28;20241;-61
2022/01/19 06:07:14;;;;;;;25.08;13.10;;;1.50;81.20;;;;;;5054209;28;20205;-61
2022/01/19 06:09:50;;;;;;;25.13;13.38;;;1.40;81.40;;;;;;5054277;28;20248;-60
2022/01/19 06:12:18;;;;;;;19.55;12.20;;;1.40;81.40;;;;;;5053910;28;20667;-61
2022/01/19 06:14:46;;;;;;;20.92;13.07;;;1.40;81.50;;;;;;5052983;28;20212;-61
2022/01/19 06:17:14;;;;;;;24.92;13.45;;;1.40;81.50;;;;;;5053901;28;20210;-60
2022/01/19 06:19:44;;;;;;;22.67;12.52;;;1.50;81.50;;;;;;5054103;28;20201;-61
2022/01/19 06:22:11;;;;;;;24.08;12.90;;;1.40;81.50;;;;;;5054009;28;20216;-60
2022/01/19 06:24:38;;;;;;;22.98;13.07;;;1.40;81.80;;;;;;5053879;28;20562;-62
2022/01/19 06:27:07;;;;;;;19.17;11.52;;;1.40;82.00;;;;;;5053871;28;20208;-59
2022/01/19 06:29:34;;;;;;;22.80;12.68;;;1.30;82.40;;;;;;5051840;28;20208;-58
2022/01/19 06:32:01;;;;;;;28.80;13.57;;;1.10;83.20;;;;;;5053580;28;20762;-58
2022/01/19 06:34:27;;;;;;;24.98;14.38;;;1.00;84.00;;;;;;5053781;28;20209;-58
2022/01/19 06:36:54;;;;;;;19.80;11.95;;;1.00;84.30;;;;;;5053590;28;20237;-59
2022/01/19 06:39:22;;;;;;;19.33;12.98;;;1.20;84.10;;;;;;5053684;28;20237;-60
2022/01/19 06:41:49;;;;;;;22.42;11.07;;;1.30;84.00;;;;;;5053665;28;20208;-59
2022/01/19 06:44:18;;;;;;;17.60;11.70;;;1.30;83.70;;;;;;5052337;28;20217;-59
2022/01/19 06:46:45;;;;;;;19.98;12.43;;;1.20;84.30;;;;;;5053252;28;20291;-60
2022/01/19 06:49:13;;;;;;;24.13;13.15;;;1.20;84.40;;;;;;5053541;28;20206;-60
2022/01/19 06:51:39;;;;;;;26.75;13.95;;;1.30;84.20;;;;;;5053446;28;20237;-56
2022/01/19 06:54:07;;;;;;;18.02;11.50;;;1.40;84.10;;;;;;5053221;28;20292;-59
2022/01/19 06:56:37;;;;;;;21.27;12.75;;;1.40;83.30;;;;;;5053345;28;20209;-60
2022/01/19 06:59:04;;;;;;;16.67;11.57;;;1.20;83.80;;;;;;5052010;28;20205;-59
2022/01/19 07:01:33;;;;;;;20.42;11.40;;;1.10;84.30;;;;;;5053256;28;20205;-58
2022/01/19 07:04:00;;;;;;;19.95;12.45;;;0.90;84.70;;;;;;5053257;28;20201;-58
2022/01/19 07:06:27;;;;;;;17.63;11.70;;;0.80;85.40;;;;;;5053271;28;20212;-57
2022/01/19 07:08:54;;;;;;;16.83;11.20;;;0.70;86.10;;;;;;5053055;28;20209;-58
2022/01/19 07:11:21;;;;;;;22.10;13.65;;;0.60;86.70;;;;;;5052908;28;20233;-59
2022/01/19 07:13:48;;;;;;;22.27;12.65;;;0.70;86.80;;;;;;5051682;28;20269;-58
2022/01/19 07:16:16;;;;;;;22.88;13.88;;;0.80;86.30;;;;;;5052963;28;20247;-59
2022/01/19 07:18:44;;;;;;;17.50;12.95;;;0.80;86.00;;;;;;5052714;28;20197;-56
2022/01/19 07:21:12;;;;;;;22.15;12.93;;;0.80;86.10;;;;;;5052712;28;20682;-60
2022/01/19 07:23:39;;;;;;;21.60;13.15;;;1.00;85.90;;;;;;5052907;28;20205;-59
2022/01/19 07:26:06;;;;;;;17.88;11.80;;;1.10;85.20;;;;;;5052854;28;20287;-58
2022/01/19 07:28:33;;;;;;;24.63;13.57;;;1.10;84.50;;;;;;5051488;28;20201;-60
2022/01/19 07:31:01;;;;;;;16.23;11.93;;;1.10;84.70;;;;;;5052716;28;20232;-57
2022/01/19 07:33:27;;;;;;;19.65;11.70;;;1.30;84.30;;;;;;5052536;28;20288;-57
2022/01/19 07:35:56;;;;;;;22.33;12.82;;;1.30;83.80;;;;;;5052571;28;20296;-59
2022/01/19 07:38:23;;;;;;;18.98;12.10;;;1.20;83.70;;;;;;5052683;28;20308;-58
2022/01/19 07:40:50;;;;;;;18.77;13.23;;;0.90;84.50;;;;;;5052603;28;20221;-61
2022/01/19 07:43:17;;;;;;;21.83;13.25;;;0.70;85.70;;;;;;5051303;28;20648;-61
2022/01/19 07:45:44;;;;;;;27.95;13.48;;;0.60;86.40;;;;;;5052617;28;20727;-58
2022/01/19 07:48:11;;;;;;;23.70;13.50;;;0.40;87.40;;;;;;5052506;28;20289;-59
2022/01/19 07:50:38;;;;;;;23.02;14.50;;;0.40;88.00;;;;;;5052431;28;20300;-57
2022/01/19 07:53:07;;;;;;;21.85;13.00;;;0.30;88.20;;;;;;5052527;28;20212;-58
2022/01/19 07:55:34;;;;;;;25.77;14.00;;;0.30;88.20;;;;;;5052495;28;20209;-59
2022/01/19 07:58:01;;;;;;;23.25;12.43;;;0.30;88.30;;;;;;5052378;28;20212;-57
2022/01/19 08:00:28;;;;;;;21.90;12.82;;;0.40;88.20;;;;;;5051634;28;20202;-59
2022/01/19 08:02:55;;;;;;;19.92;12.68;;;0.40;88.00;;;;;;5052320;28;20205;-59
2022/01/19 08:05:22;;;;;;;20.50;14.00;;;0.50;87.70;;;;;;5052345;28;20209;-59
2022/01/19 08:07:49;;;;;;;23.27;12.80;;;0.60;87.40;;;;;;5052329;28;20209;-58
2022/01/19 08:10:18;;;;;;;21.00;12.43;;;0.50;87.10;;;;;;5052344;28;20208;-58
2022/01/19 08:12:44;;;;;;;24.00;13.18;;;0.50;87.40;;;;;;5052088;28;20698;-55
2022/01/19 08:15:12;;;;;;;20.48;13.50;;;0.50;87.60;;;;;;5051088;28;20682;-56
2022/01/19 08:17:39;;;;;;;27.60;14.45;;;0.50;87.40;;;;;;5052072;28;20669;-54
2022/01/19 08:20:07;;;;;;;24.58;14.20;;;0.50;87.50;;;;;;5052293;28;20259;-55
2022/01/19 08:22:34;;;;;;;28.95;14.27;;;0.40;87.70;;;;;;5052262;28;20296;-55
2022/01/19 08:25:01;;;;;;;23.65;14.60;;;0.50;88.00;;;;;;5052255;28;20209;-59
2022/01/19 08:27:29;;;;;;;23.67;14.75;;;0.50;88.00;;;;;;5052321;28;20205;-56
2022/01/19 08:29:57;;;;;;;22.67;14.00;;;0.60;88.00;;;;;;5050982;28;20205;-61
2022/01/19 08:32:24;;;;;;;23.42;14.05;;;0.60;87.90;;;;;;5051922;28;20237;-59
2022/01/19 08:34:51;;;;;;;26.33;15.23;;;0.60;88.00;;;;;;5052248;28;20210;-59
2022/01/19 08:37:18;;;;;;;25.92;13.90;;;0.70;87.90;;;;;;5052078;28;20206;-54
2022/01/19 08:39:45;;;;;;;27.30;14.65;;;0.70;87.80;;;;;;5052066;28;20289;-59
2022/01/19 08:42:12;;;;;;;26.35;13.63;;;0.70;87.70;;;;;;5052078;28;20205;-59
2022/01/19 08:44:41;;;;;;;24.75;14.00;;;0.80;87.80;;;;;;5050695;28;20731;-59
2022/01/19 08:47:08;;;;;;;25.00;13.75;;;0.80;87.50;;;;;;5051875;28;20205;-59
2022/01/19 08:49:35;;;;;;;26.98;13.82;;;0.80;87.50;;;;;;5052141;28;20202;-57
2022/01/19 08:52:03;;;;;;;22.90;13.05;;;0.70;87.90;;;;;;5053465;28;20700;-57
2022/01/19 08:54:30;;;;;;;24.17;14.40;;;0.60;88.30;;;;;;5055659;28;20296;-56
2022/01/19 08:56:57;;;;;;;29.15;13.45;;;0.70;88.30;;;;;;5055637;28;20205;-56
2022/01/19 08:59:24;;;;;;;24.85;13.55;;;0.90;87.90;;;;;;5054137;28;20205;-58
2022/01/19 09:01:52;;;;;;;25.35;14.57;;;1.10;87.50;;;;;;5055556;28;20215;-56
2022/01/19 09:04:19;;;;;;;25.90;13.93;;;1.30;86.40;;;;;;5055409;28;20309;-59
2022/01/19 09:06:46;;;;;;;24.38;14.13;;;1.20;85.70;;;;;;5055314;28;20206;-59
2022/01/19 09:09:13;;;;;;;23.83;14.95;;;1.30;86.20;;;;;;5055284;28;20208;-54
2022/01/19 09:11:42;;;;;;;22.58;14.07;;;1.50;86.10;;;;;;5054926;28;20239;-60
2022/01/19 09:14:10;;;;;;;23.08;12.98;;;1.70;85.00;;;;;;5054129;28;20307;-57
2022/01/19 09:16:37;;;;;;;20.50;12.93;;;1.70;84.40;;;;;;5055243;28;20546;-61
2022/01/19 09:19:07;;;;;;;23.77;14.38;;;1.80;84.00;;;;;;5055123;28;20201;-59
2022/01/19 09:21:34;;;;;;;26.98;13.70;;;1.80;83.90;;;;;;5055114;28;20209;-58
2022/01/19 09:24:01;;;;;;;19.48;13.32;;;1.80;83.50;;;;;;5055070;28;20212;-58
2022/01/19 09:26:29;;;;;;;20.42;13.40;;;1.80;83.80;;;;;;5054907;28;20241;-55
2022/01/19 09:28:56;;;;;;;20.17;12.60;;;1.70;83.80;;;;;;5053740;28;20202;-58
2022/01/19 09:31:24;;;;;;;23.00;14.88;;;1.80;84.10;;;;;;5054962;28;20235;-60
2022/01/19 09:33:56;;;;;;;24.13;13.00;;;1.90;83.80;;;;;;5054828;28;20655;-60
2022/01/19 09:36:33;;;;;;;22.70;13.80;;;2.10;84.40;;;;;;5054811;28;20244;-60
2022/01/19 09:39:00;;;;;;;21.02;13.18;;;2.50;84.50;;;;;;5054691;28;20240;-57
2022/01/19 09:41:28;;;;;;;20.55;13.23;;;2.90;84.40;;;;;;5054646;28;20304;-61
2022/01/19 09:43:55;;;;;;;20.40;13.00;;;3.00;80.60;;;;;;5053564;28;20205;-60
2022/01/19 09:46:22;;;;;;;19.80;13.43;;;3.00;80.70;;;;;;5054693;28;20652;-55
2022/01/19 09:48:49;;;;;;;20.95;12.23;;;3.10;79.30;;;;;;5054592;28;20201;-59
2022/01/19 09:51:17;;;;;;;16.17;12.50;;;3.10;79.60;;;;;;5054421;28;20561;-56
2022/01/19 09:53:47;;;;;;;20.25;13.05;;;3.30;79.90;;;;;;5054557;28;20202;-61
2022/01/19 09:56:16;;;;;;;15.27;12.25;;;3.50;79.10;;;;;;5054609;28;20240;-59
2022/01/19 09:58:42;;;;;;;21.38;13.55;;;3.40;76.80;;;;;;5053179;28;20293;-60
2022/01/19 10:01:09;;;;;;;16.60;12.40;;;3.30;77.20;;;;;;5054363;28;20201;-57
2022/01/19 10:03:36;;;;;;;16.85;13.30;;;3.30;77.00;;;;;;5053068;28;20292;-57
2022/01/19 10:06:07;;;;;;;18.63;14.23;;;3.30;77.10;;;;;;5054217;28;20649;-58
2022/01/19 10:08:37;;;;;;;15.55;12.60;;;3.50;78.40;;;;;;5054255;28;20206;-59
2022/01/19 10:11:22;;;;;;;18.33;13.10;;;3.80;79.00;;;;;;5054082;28;20258;-58
2022/01/19 10:16:59;;;;;;;17.30;14.30;;;4.00;77.10;;;;;;5054040;28;20229;-59
2022/01/19 10:19:29;;;;;;;20.08;13.45;;;4.00;75.80;;;;;;5054079;28;20201;-59
2022/01/19 10:21:58;;;;;;;22.85;14.88;;;4.10;75.70;;;;;;5054007;28;20231;-61
2022/01/19 10:24:37;;;;;;;20.92;13.55;;;4.10;75.50;;;;;;5054036;28;20300;-60
2022/01/19 10:27:39;;;;;;;18.73;14.30;;;4.20;76.20;;;;;;5053915;28;20229;-62
2022/01/19 10:30:21;;;;;;;16.27;13.38;;;4.20;75.40;;;;;;5052518;28;20288;-61
2022/01/19 10:32:51;;;;;;;16.65;13.63;;;4.40;75.30;;;;;;5053606;28;20578;-59
2022/01/19 10:35:22;;;;;;;15.90;13.40;;;4.30;74.10;;;;;;5053653;28;20201;-63
2022/01/19 10:38:04;;;;;;;18.88;12.90;;;4.30;74.80;;;;;;5053642;28;20205;-57
2022/01/19 10:40:32;;;;;;;20.20;14.05;;;4.30;74.20;;;;;;5053670;28;20233;-62
2022/01/19 10:43:00;;;;;;;19.35;14.55;;;4.40;74.30;;;;;;5053595;28;20212;-56
2022/01/19 10:45:32;;;;;;;17.77;14.05;;;4.40;74.20;;;;;;5052550;28;20198;-61
2022/01/19 10:47:59;;;;;;;16.25;12.13;;;4.40;74.70;;;;;;5053374;28;20224;-59
2022/01/19 10:50:29;;;;;;;18.60;14.07;;;4.60;74.60;;;;;;5053491;28;20229;-58
2022/01/19 10:52:57;;;;;;;17.15;14.05;;;4.70;74.10;;;;;;5053281;28;20228;-57
2022/01/19 10:55:29;;;;;;;17.58;13.40;;;4.70;73.50;;;;;;5053336;28;20205;-58
2022/01/19 10:57:58;;;;;;;20.80;15.20;;;5.00;74.20;;;;;;5053326;28;20211;-59
2022/01/19 11:00:29;;;;;;;20.02;15.00;;;5.20;74.40;;;;;;5051924;28;20565;-61
2022/01/19 11:02:58;;;;;;;16.98;13.23;;;5.40;73.80;;;;;;5053209;28;20210;-60
2022/01/19 11:05:43;;;;;;;15.18;12.43;;;5.50;72.50;;;;;;5053348;28;20300;-62
2022/01/19 11:08:10;;;;;;;18.05;13.55;;;5.60;72.80;;;;;;5053194;28;20664;-60
2022/01/19 11:10:38;;;;;;;15.32;13.70;;;5.80;72.90;;;;;;5052974;28;20260;-61
2022/01/19 11:13:06;;;;;;;15.02;13.50;;;6.10;73.50;;;;;;5052382;28;20336;-58
2022/01/19 11:15:34;;;;;;;17.27;12.60;;;6.30;73.30;;;;;;5052490;28;20293;-60
2022/01/19 11:18:01;;;;;;;17.05;13.23;;;6.40;72.20;;;;;;5052861;28;20297;-60
2022/01/19 11:20:29;;;;;;;15.30;11.77;;;6.60;70.50;;;;;;5053048;28;20201;-61
2022/01/19 11:23:07;;;;;;;14.73;13.18;;;6.90;70.60;;;;;;5052855;28;20215;-56
2022/01/19 11:25:49;;;;;;;15.20;13.13;;;8.20;65.50;;;;;;5052927;28;20283;-60
2022/01/19 11:28:28;;;;;;;14.57;13.18;;;9.60;63.70;;;;;;5051486;28;20207;-60
2022/01/19 11:30:57;;;;;;;14.02;12.40;;;10.90;59.70;;;;;;5052867;28;20292;-62
2022/01/19 11:33:26;;;;;;;15.07;13.13;;;11.70;56.20;;;;;;5052565;28;20300;-61
2022/01/19 11:35:56;;;;;;;14.13;12.80;;;11.80;54.20;;;;;;5052625;28;20201;-64
2022/01/19 11:38:32;;;;;;;12.30;11.05;;;12.60;53.00;;;;;;5052699;28;20347;-65
2022/01/19 11:40:59;;;;;;;13.70;12.45;;;13.90;55.70;;;;;;5052629;28;20205;-60
2022/01/19 11:43:29;;;;;;;16.37;14.63;;;15.50;47.60;;;;;;5051323;28;20205;-63
2022/01/19 11:45:57;;;;;;;13.73;12.43;;;16.70;51.60;;;;;;5052738;28;20448;-62
2022/01/19 11:48:26;;;;;;;16.57;14.87;;;18.30;50.20;;;;;;5052373;28;20532;-64
2022/01/19 11:51:06;;;;;;;16.53;14.83;;;19.70;48.70;;;;;;5052521;28;20457;-61
2022/01/19 11:54:00;;;;;;;18.97;15.90;;;20.80;45.80;;;;;;5052591;28;20538;-62
2022/01/19 11:56:27;;;;;;;17.07;15.50;;;21.80;45.50;;;;;;5052513;28;20926;-64
2022/01/19 11:59:06;;;;;;;17.67;15.97;;;22.50;41.40;;;;;;5051188;28;20826;-62
2022/01/19 12:01:35;;;;;;;18.20;16.40;;;23.00;43.00;;;;;;5052495;28;20806;-63
2022/01/19 12:04:17;;;;;;;18.80;17.10;;;23.30;39.00;;;;;;5052333;28;20452;-61
2022/01/19 12:06:44;;;;;;;19.63;17.70;;;23.60;37.30;;;;;;5052380;28;20543;-64
2022/01/19 12:09:13;;;;;;;20.03;17.40;;;23.60;39.60;;;;;;5052343;28;20451;-62
2022/01/19 12:11:45;;;;;;;19.77;17.77;;;23.80;39.20;;;;;;5052137;28;20538;-64
2022/01/19 12:14:17;;;;;;;18.53;16.77;;;24.00;37.40;;;;;;5051103;28;20530;-63
2022/01/19 12:17:02;;;;;;;19.73;17.57;;;24.30;38.80;;;;;;5052447;28;20526;-62
2022/01/19 12:19:31;;;;;;;17.83;16.13;;;24.30;37.40;;;;;;5052054;28;20451;-62
2022/01/19 12:22:11;;;;;;;18.80;17.10;;;23.50;35.10;;;;;;5052249;28;20456;-62
2022/01/19 12:24:41;;;;;;;20.20;18.10;;;22.10;36.50;;;;;;5052222;28;20482;-62
2022/01/19 12:27:22;;;;;;;20.40;15.40;;;20.80;37.80;;;;;;5053926;28;20574;-60
2022/01/19 12:29:52;;;;;;;17.67;15.23;;;20.20;38.40;;;;;;5054836;28;20840;-61
2022/01/19 12:32:40;;;;;;;18.03;16.23;;;19.90;39.30;;;;;;5055941;28;20575;-61
2022/01/19 12:35:19;;;;;;;19.20;16.70;;;19.90;39.70;;;;;;5056070;28;20458;-63
2022/01/19 12:37:49;;;;;;;15.20;13.60;;;19.80;39.50;;;;;;5056001;28;20447;-62
2022/01/19 12:40:56;;;;;;;16.97;13.07;;;19.10;39.30;;;;;;5055998;28;20446;-59
2022/01/19 12:43:34;;;;;;;17.27;15.77;;;18.70;40.50;;;;;;5054564;28;20911;-59
2022/01/19 12:46:04;;;;;;;17.90;15.90;;;17.60;39.60;;;;;;5055830;28;20942;-62
2022/01/19 12:48:41;;;;;;;18.27;14.33;;;17.50;42.40;;;;;;5055724;28;20450;-61
2022/01/19 12:51:41;;;;;;;15.00;13.57;;;17.80;42.20;;;;;;5055610;28;20458;-63
2022/01/19 12:54:12;;;;;;;15.33;14.03;;;18.00;40.70;;;;;;5055790;28;20577;-64
2022/01/19 12:56:39;;;;;;;19.65;15.35;;;17.80;40.30;;;;;;5055806;28;20456;-62
2022/01/19 12:59:09;;;;;;;14.55;13.18;;;17.20;42.00;;;;;;5054306;28;20198;-61
2022/01/19 13:01:36;;;;;;;14.65;13.15;;;16.50;41.80;;;;;;5055495;28;20206;-62
2022/01/19 13:04:04;;;;;;;17.98;13.65;;;15.70;43.50;;;;;;5055329;28;20205;-60
2022/01/19 13:06:33;;;;;;;16.50;14.75;;;14.90;44.70;;;;;;5055495;28;20205;-60
2022/01/19 13:09:10;;;;;;;15.07;13.48;;;14.40;45.60;;;;;;5055386;28;20202;-63
2022/01/19 13:11:40;;;;;;;17.15;15.45;;;14.00;46.90;;;;;;5055385;28;20201;-61
2022/01/19 13:14:08;;;;;;;14.93;13.52;;;13.70;47.50;;;;;;5054228;28;20306;-64
2022/01/19 13:16:39;;;;;;;15.50;14.20;;;13.60;47.80;;;;;;5055441;28;20565;-63
2022/01/19 13:19:11;;;;;;;16.05;14.45;;;13.30;48.20;;;;;;5055155;28;20209;-64
2022/01/19 13:21:39;;;;;;;15.13;13.75;;;12.90;48.10;;;;;;5055200;28;20561;-62
2022/01/19 13:24:10;;;;;;;14.50;12.55;;;12.40;48.90;;;;;;5055182;28;20205;-63
2022/01/19 13:26:40;;;;;;;16.83;15.05;;;11.60;49.60;;;;;;5055049;28;20732;-61
2022/01/19 13:29:15;;;;;;;15.63;14.02;;;11.00;51.40;;;;;;5053640;28;20208;-59
2022/01/19 13:31:51;;;;;;;15.07;13.50;;;10.20;53.80;;;;;;5055125;28;20299;-60
2022/01/19 13:34:20;;;;;;;14.55;13.10;;;9.70;53.80;;;;;;5054649;28;20239;-60
2022/01/19 13:36:54;;;;;;;16.42;14.80;;;9.40;55.10;;;;;;5054763;28;20212;-60
2022/01/19 13:39:22;;;;;;;15.35;12.60;;;9.10;55.10;;;;;;5054681;28;20228;-62
2022/01/19 13:41:51;;;;;;;16.60;12.70;;;8.90;55.30;;;;;;5054772;28;20292;-62
2022/01/19 13:44:22;;;;;;;13.15;11.60;;;8.80;55.70;;;;;;5053527;28;20592;-59
2022/01/19 13:46:49;;;;;;;14.43;13.02;;;8.60;56.40;;;;;;5054826;28;20629;-56
2022/01/19 13:49:16;;;;;;;13.20;11.90;;;8.50;56.40;;;;;;5054386;28;20205;-60
2022/01/19 13:51:45;;;;;;;17.13;12.32;;;8.30;57.70;;;;;;5054625;28;20252;-60
2022/01/19 13:54:12;;;;;;;14.68;13.18;;;7.90;62.20;;;;;;5054596;28;20267;-62
2022/01/19 13:56:41;;;;;;;14.48;13.07;;;7.40;63.40;;;;;;5054515;28;20570;-60
2022/01/19 13:59:11;;;;;;;13.65;11.38;;;7.20;64.30;;;;;;5053295;28;20252;-58
2022/01/19 14:01:40;;;;;;;14.65;13.25;;;7.10;65.40;;;;;;5054457;28;20197;-61